sensor_id;sensor_type;location;lat;lon;timestamp;temperature;humidity
7196;DHT22;3639;51.308;5.624;2023-02-18T00:01:31;11.60;99.90
7196;DHT22;3639;51.308;5.624;2023-02-18T00:03:58;11.60;99.90
7196;DHT22;3639;51.308;5.624;2023-02-18T00:06:29;11.60;99.90
7196;DHT22;3639;51.308;5.624;2023-02-18T00:08:55;11.50;99.90
7196;DHT22;3639;51.308;5.624;2023-02-18T00:11:23;11.50;99.90
7196;DHT22;3639;51.308;5.624;2023-02-18T00:13:54;11.50;99.90
7196;DHT22;3639;51.308;5.624;2023-02-18T00:16:21;11.50;99.90
7196;DHT22;3639;51.308;5.624;2023-02-18T00:18:48;11.60;99.90
7196;DHT22;3639;51.308;5.624;2023-02-18T00:21:13;11.60;99.90
7196;DHT22;3639;51.308;5.624;2023-02-18T00:23:39;11.50;99.90
7196;DHT22;3639;51.308;5.624;2023-02-18T00:26:09;11.50;99.90
7196;DHT22;3639;51.308;5.624;2023-02-18T00:28:35;11.50;99.90
7196;DHT22;3639;51.308;5.624;2023-02-18T00:31:10;11.50;99.90
7196;DHT22;3639;51.308;5.624;2023-02-18T00:33:36;11.50;99.90
7196;DHT22;3639;51.308;5.624;2023-02-18T00:36:07;11.40;99.90
7196;DHT22;3639;51.308;5.624;2023-02-18T00:38:33;11.40;99.90
7196;DHT22;3639;51.308;5.624;2023-02-18T00:40:59;11.40;99.90
7196;DHT22;3639;51.308;5.624;2023-02-18T00:43:25;11.40;99.90
7196;DHT22;3639;51.308;5.624;2023-02-18T00:45:51;11.30;99.90
7196;DHT22;3639;51.308;5.624;2023-02-18T00:48:17;11.20;99.90
7196;DHT22;3639;51.308;5.624;2023-02-18T00:50:43;11.20;99.90
7196;DHT22;3639;51.308;5.624;2023-02-18T00:53:09;11.20;99.90
7196;DHT22;3639;51.308;5.624;2023-02-18T00:55:46;11.20;99.90
7196;DHT22;3639;51.308;5.624;2023-02-18T00:58:13;11.10;99.90
7196;DHT22;3639;51.308;5.624;2023-02-18T01:00:39;11.10;99.90
7196;DHT22;3639;51.308;5.624;2023-02-18T01:03:05;11.10;99.90
7196;DHT22;3639;51.308;5.624;2023-02-18T01:05:35;11.10;99.90
7196;DHT22;3639;51.308;5.624;2023-02-18T01:08:01;11.00;99.90
7196;DHT22;3639;51.308;5.624;2023-02-18T01:10:27;11.00;99.90
7196;DHT22;3639;51.308;5.624;2023-02-18T01:12:52;11.00;99.90
7196;DHT22;3639;51.308;5.624;2023-02-18T01:15:18;11.00;99.90
7196;DHT22;3639;51.308;5.624;2023-02-18T01:17:44;11.00;99.90
7196;DHT22;3639;51.308;5.624;2023-02-18T01:20:11;11.00;99.90
7196;DHT22;3639;51.308;5.624;2023-02-18T01:22:37;10.90;99.90
7196;DHT22;3639;51.308;5.624;2023-02-18T01:25:03;10.90;99.90
7196;DHT22;3639;51.308;5.624;2023-02-18T01:27:29;10.90;99.90
7196;DHT22;3639;51.308;5.624;2023-02-18T01:29:55;10.90;99.90
7196;DHT22;3639;51.308;5.624;2023-02-18T01:32:20;10.80;99.90
7196;DHT22;3639;51.308;5.624;2023-02-18T01:34:46;10.90;99.90
7196;DHT22;3639;51.308;5.624;2023-02-18T01:37:12;10.90;99.90
7196;DHT22;3639;51.308;5.624;2023-02-18T01:39:38;10.90;99.90
7196;DHT22;3639;51.308;5.624;2023-02-18T01:42:04;10.90;99.90
7196;DHT22;3639;51.308;5.624;2023-02-18T01:44:33;11.00;99.90
7196;DHT22;3639;51.308;5.624;2023-02-18T01:46:59;10.90;99.90
7196;DHT22;3639;51.308;5.624;2023-02-18T01:49:33;10.90;99.90
7196;DHT22;3639;51.308;5.624;2023-02-18T01:52:03;10.90;99.90
7196;DHT22;3639;51.308;5.624;2023-02-18T01:54:39;10.90;99.90
7196;DHT22;3639;51.308;5.624;2023-02-18T01:57:12;10.90;99.90
7196;DHT22;3639;51.308;5.624;2023-02-18T01:59:43;10.90;99.90
7196;DHT22;3639;51.308;5.624;2023-02-18T02:02:14;10.90;99.90
7196;DHT22;3639;51.308;5.624;2023-02-18T02:04:41;10.90;99.90
7196;DHT22;3639;51.308;5.624;2023-02-18T02:07:08;10.90;99.90
7196;DHT22;3639;51.308;5.624;2023-02-18T02:09:34;10.90;99.90
7196;DHT22;3639;51.308;5.624;2023-02-18T02:35:08;10.90;99.90
7196;DHT22;3639;51.308;5.624;2023-02-18T02:43:20;10.90;99.90
7196;DHT22;3639;51.308;5.624;2023-02-18T02:53:49;11.00;99.90
7196;DHT22;3639;51.308;5.624;2023-02-18T02:56:18;11.00;99.90
7196;DHT22;3639;51.308;5.624;2023-02-18T02:58:57;10.90;99.90
7196;DHT22;3639;51.308;5.624;2023-02-18T03:01:32;10.90;99.90
7196;DHT22;3639;51.308;5.624;2023-02-18T03:06:50;10.90;99.90
7196;DHT22;3639;51.308;5.624;2023-02-18T03:09:48;10.80;99.90
7196;DHT22;3639;51.308;5.624;2023-02-18T03:17:31;10.80;99.90
7196;DHT22;3639;51.308;5.624;2023-02-18T03:20:42;10.80;99.90
7196;DHT22;3639;51.308;5.624;2023-02-18T03:23:15;10.80;99.90
7196;DHT22;3639;51.308;5.624;2023-02-18T03:25:42;10.80;99.90
7196;DHT22;3639;51.308;5.624;2023-02-18T03:28:12;10.80;99.90
7196;DHT22;3639;51.308;5.624;2023-02-18T03:30:47;10.70;99.90
7196;DHT22;3639;51.308;5.624;2023-02-18T03:33:16;10.70;99.90
7196;DHT22;3639;51.308;5.624;2023-02-18T03:35:43;10.70;99.90
7196;DHT22;3639;51.308;5.624;2023-02-18T03:41:00;10.70;99.90
7196;DHT22;3639;51.308;5.624;2023-02-18T03:43:25;10.70;99.90
7196;DHT22;3639;51.308;5.624;2023-02-18T03:45:51;10.70;99.90
7196;DHT22;3639;51.308;5.624;2023-02-18T03:48:17;10.60;99.90
7196;DHT22;3639;51.308;5.624;2023-02-18T03:50:43;10.70;99.90
7196;DHT22;3639;51.308;5.624;2023-02-18T03:53:08;10.70;99.90
7196;DHT22;3639;51.308;5.624;2023-02-18T03:55:35;10.60;99.90
7196;DHT22;3639;51.308;5.624;2023-02-18T03:58:01;10.60;99.90
7196;DHT22;3639;51.308;5.624;2023-02-18T04:00:27;10.60;99.90
7196;DHT22;3639;51.308;5.624;2023-02-18T04:02:52;10.60;99.90
7196;DHT22;3639;51.308;5.624;2023-02-18T04:05:18;10.60;99.90
7196;DHT22;3639;51.308;5.624;2023-02-18T04:07:43;10.60;99.90
7196;DHT22;3639;51.308;5.624;2023-02-18T04:10:09;10.60;99.90
7196;DHT22;3639;51.308;5.624;2023-02-18T04:12:35;10.60;99.90
7196;DHT22;3639;51.308;5.624;2023-02-18T04:15:01;10.60;99.90
7196;DHT22;3639;51.308;5.624;2023-02-18T04:17:26;10.50;99.90
7196;DHT22;3639;51.308;5.624;2023-02-18T04:19:52;10.50;99.90
7196;DHT22;3639;51.308;5.624;2023-02-18T04:22:17;10.60;99.90
7196;DHT22;3639;51.308;5.624;2023-02-18T04:24:43;10.50;99.90
7196;DHT22;3639;51.308;5.624;2023-02-18T04:27:09;10.50;99.90
7196;DHT22;3639;51.308;5.624;2023-02-18T04:29:34;10.50;99.90
7196;DHT22;3639;51.308;5.624;2023-02-18T04:32:00;10.50;99.90
7196;DHT22;3639;51.308;5.624;2023-02-18T04:34:26;10.60;99.90
7196;DHT22;3639;51.308;5.624;2023-02-18T04:36:51;10.50;99.90
7196;DHT22;3639;51.308;5.624;2023-02-18T04:39:17;10.50;99.90
7196;DHT22;3639;51.308;5.624;2023-02-18T04:41:42;10.50;99.90
7196;DHT22;3639;51.308;5.624;2023-02-18T04:44:08;10.50;99.90
7196;DHT22;3639;51.308;5.624;2023-02-18T04:46:34;10.50;99.90
7196;DHT22;3639;51.308;5.624;2023-02-18T04:49:00;10.50;99.90
7196;DHT22;3639;51.308;5.624;2023-02-18T04:51:25;10.50;99.90
7196;DHT22;3639;51.308;5.624;2023-02-18T04:53:51;10.50;99.90
7196;DHT22;3639;51.308;5.624;2023-02-18T04:56:17;10.50;99.90
7196;DHT22;3639;51.308;5.624;2023-02-18T04:58:42;10.50;99.90
7196;DHT22;3639;51.308;5.624;2023-02-18T05:01:08;10.50;99.90
7196;DHT22;3639;51.308;5.624;2023-02-18T05:03:34;10.50;99.90
7196;DHT22;3639;51.308;5.624;2023-02-18T05:06:00;10.50;99.90
7196;DHT22;3639;51.308;5.624;2023-02-18T05:08:26;10.50;99.90
7196;DHT22;3639;51.308;5.624;2023-02-18T05:10:51;10.50;99.90
7196;DHT22;3639;51.308;5.624;2023-02-18T05:13:17;10.50;99.90
7196;DHT22;3639;51.308;5.624;2023-02-18T05:15:43;10.40;99.90
7196;DHT22;3639;51.308;5.624;2023-02-18T05:18:08;10.40;99.90
7196;DHT22;3639;51.308;5.624;2023-02-18T05:20:34;10.40;99.90
7196;DHT22;3639;51.308;5.624;2023-02-18T05:23:00;10.40;99.90
7196;DHT22;3639;51.308;5.624;2023-02-18T05:25:25;10.40;99.90
7196;DHT22;3639;51.308;5.624;2023-02-18T05:27:51;10.40;99.90
7196;DHT22;3639;51.308;5.624;2023-02-18T05:30:17;10.40;99.90
7196;DHT22;3639;51.308;5.624;2023-02-18T05:32:44;10.40;99.90
7196;DHT22;3639;51.308;5.624;2023-02-18T05:35:09;10.40;99.90
7196;DHT22;3639;51.308;5.624;2023-02-18T05:37:35;10.40;99.90
7196;DHT22;3639;51.308;5.624;2023-02-18T05:40:01;10.40;99.90
7196;DHT22;3639;51.308;5.624;2023-02-18T05:42:28;10.40;99.90
7196;DHT22;3639;51.308;5.624;2023-02-18T05:44:53;10.40;99.90
7196;DHT22;3639;51.308;5.624;2023-02-18T05:47:19;10.40;99.90
7196;DHT22;3639;51.308;5.624;2023-02-18T05:49:45;10.30;99.90
7196;DHT22;3639;51.308;5.624;2023-02-18T05:52:11;10.40;99.90
7196;DHT22;3639;51.308;5.624;2023-02-18T05:54:37;10.40;99.90
7196;DHT22;3639;51.308;5.624;2023-02-18T05:57:03;10.40;99.90
7196;DHT22;3639;51.308;5.624;2023-02-18T05:59:29;10.40;99.90
7196;DHT22;3639;51.308;5.624;2023-02-18T06:01:55;10.40;99.90
7196;DHT22;3639;51.308;5.624;2023-02-18T06:04:21;10.40;99.90
7196;DHT22;3639;51.308;5.624;2023-02-18T06:06:46;10.40;99.90
7196;DHT22;3639;51.308;5.624;2023-02-18T06:09:12;10.40;99.90
7196;DHT22;3639;51.308;5.624;2023-02-18T06:11:38;10.40;99.90
7196;DHT22;3639;51.308;5.624;2023-02-18T06:14:04;10.40;99.90
7196;DHT22;3639;51.308;5.624;2023-02-18T06:16:30;10.40;99.90
7196;DHT22;3639;51.308;5.624;2023-02-18T06:18:56;10.40;99.90
7196;DHT22;3639;51.308;5.624;2023-02-18T06:21:21;10.40;99.90
7196;DHT22;3639;51.308;5.624;2023-02-18T06:23:47;10.40;99.90
7196;DHT22;3639;51.308;5.624;2023-02-18T06:26:13;10.40;99.90
7196;DHT22;3639;51.308;5.624;2023-02-18T06:28:39;10.40;99.90
7196;DHT22;3639;51.308;5.624;2023-02-18T06:31:04;10.40;99.90
7196;DHT22;3639;51.308;5.624;2023-02-18T06:33:30;10.40;99.90
7196;DHT22;3639;51.308;5.624;2023-02-18T06:35:58;10.40;99.90
7196;DHT22;3639;51.308;5.624;2023-02-18T06:38:24;10.40;99.90
7196;DHT22;3639;51.308;5.624;2023-02-18T06:40:50;10.40;99.90
7196;DHT22;3639;51.308;5.624;2023-02-18T06:43:17;10.40;99.90
7196;DHT22;3639;51.308;5.624;2023-02-18T06:45:42;10.40;99.90
7196;DHT22;3639;51.308;5.624;2023-02-18T06:48:09;10.40;99.90
7196;DHT22;3639;51.308;5.624;2023-02-18T06:50:35;10.40;99.90
7196;DHT22;3639;51.308;5.624;2023-02-18T06:53:01;10.40;99.90
7196;DHT22;3639;51.308;5.624;2023-02-18T06:55:26;10.40;99.90
7196;DHT22;3639;51.308;5.624;2023-02-18T06:57:52;10.40;99.90
7196;DHT22;3639;51.308;5.624;2023-02-18T07:00:18;10.40;99.90
7196;DHT22;3639;51.308;5.624;2023-02-18T07:02:44;10.30;99.90
7196;DHT22;3639;51.308;5.624;2023-02-18T07:05:09;10.30;99.90
7196;DHT22;3639;51.308;5.624;2023-02-18T07:07:35;10.30;99.90
7196;DHT22;3639;51.308;5.624;2023-02-18T07:10:01;10.20;99.90
7196;DHT22;3639;51.308;5.624;2023-02-18T07:12:26;10.20;99.90
7196;DHT22;3639;51.308;5.624;2023-02-18T07:14:52;10.20;99.90
7196;DHT22;3639;51.308;5.624;2023-02-18T07:17:18;10.20;99.90
7196;DHT22;3639;51.308;5.624;2023-02-18T07:19:44;10.20;99.90
7196;DHT22;3639;51.308;5.624;2023-02-18T07:22:10;10.20;99.90
7196;DHT22;3639;51.308;5.624;2023-02-18T07:24:35;10.20;99.90
7196;DHT22;3639;51.308;5.624;2023-02-18T07:27:01;10.20;99.90
7196;DHT22;3639;51.308;5.624;2023-02-18T07:29:27;10.20;99.90
7196;DHT22;3639;51.308;5.624;2023-02-18T07:31:52;10.20;99.90
7196;DHT22;3639;51.308;5.624;2023-02-18T07:34:19;10.20;99.90
7196;DHT22;3639;51.308;5.624;2023-02-18T07:36:44;10.20;99.90
7196;DHT22;3639;51.308;5.624;2023-02-18T07:39:10;10.20;99.90
7196;DHT22;3639;51.308;5.624;2023-02-18T07:41:36;10.30;99.90
7196;DHT22;3639;51.308;5.624;2023-02-18T07:44:02;10.20;99.90
7196;DHT22;3639;51.308;5.624;2023-02-18T07:46:28;10.20;99.90
7196;DHT22;3639;51.308;5.624;2023-02-18T07:48:55;10.20;99.90
7196;DHT22;3639;51.308;5.624;2023-02-18T07:51:20;10.20;99.90
7196;DHT22;3639;51.308;5.624;2023-02-18T07:53:46;10.20;99.90
7196;DHT22;3639;51.308;5.624;2023-02-18T07:56:12;10.20;99.90
7196;DHT22;3639;51.308;5.624;2023-02-18T07:58:38;10.20;99.90
7196;DHT22;3639;51.308;5.624;2023-02-18T08:01:09;10.20;99.90
7196;DHT22;3639;51.308;5.624;2023-02-18T08:03:36;10.20;99.90
7196;DHT22;3639;51.308;5.624;2023-02-18T08:06:03;10.20;99.90
7196;DHT22;3639;51.308;5.624;2023-02-18T08:08:30;10.20;99.90
7196;DHT22;3639;51.308;5.624;2023-02-18T08:10:59;10.10;99.90
7196;DHT22;3639;51.308;5.624;2023-02-18T08:13:28;10.10;99.90
7196;DHT22;3639;51.308;5.624;2023-02-18T08:15:55;10.20;99.90
7196;DHT22;3639;51.308;5.624;2023-02-18T08:18:22;10.20;99.90
7196;DHT22;3639;51.308;5.624;2023-02-18T08:20:49;10.20;99.90
7196;DHT22;3639;51.308;5.624;2023-02-18T08:23:18;10.20;99.90
7196;DHT22;3639;51.308;5.624;2023-02-18T08:25:48;10.20;99.90
7196;DHT22;3639;51.308;5.624;2023-02-18T08:28:15;10.20;99.90
7196;DHT22;3639;51.308;5.624;2023-02-18T08:30:49;10.20;99.90
7196;DHT22;3639;51.308;5.624;2023-02-18T08:33:15;10.20;99.90
7196;DHT22;3639;51.308;5.624;2023-02-18T08:35:41;10.30;99.90
7196;DHT22;3639;51.308;5.624;2023-02-18T08:38:07;10.30;99.90
7196;DHT22;3639;51.308;5.624;2023-02-18T08:40:32;10.30;99.90
7196;DHT22;3639;51.308;5.624;2023-02-18T08:42:58;10.30;99.90
7196;DHT22;3639;51.308;5.624;2023-02-18T08:45:24;10.40;99.90
7196;DHT22;3639;51.308;5.624;2023-02-18T08:47:49;10.40;99.90
7196;DHT22;3639;51.308;5.624;2023-02-18T08:50:15;10.40;99.90
7196;DHT22;3639;51.308;5.624;2023-02-18T08:52:41;10.50;99.90
7196;DHT22;3639;51.308;5.624;2023-02-18T08:55:07;10.50;99.90
7196;DHT22;3639;51.308;5.624;2023-02-18T08:57:33;10.50;99.90
7196;DHT22;3639;51.308;5.624;2023-02-18T08:59:58;10.50;99.90
7196;DHT22;3639;51.308;5.624;2023-02-18T09:02:24;10.60;99.90
7196;DHT22;3639;51.308;5.624;2023-02-18T09:04:50;10.60;99.90
7196;DHT22;3639;51.308;5.624;2023-02-18T09:07:15;10.70;99.90
7196;DHT22;3639;51.308;5.624;2023-02-18T09:09:41;10.70;99.90
7196;DHT22;3639;51.308;5.624;2023-02-18T09:12:07;10.70;99.90
7196;DHT22;3639;51.308;5.624;2023-02-18T09:14:33;10.80;99.90
7196;DHT22;3639;51.308;5.624;2023-02-18T09:16:59;10.80;99.90
7196;DHT22;3639;51.308;5.624;2023-02-18T09:19:25;10.90;99.90
7196;DHT22;3639;51.308;5.624;2023-02-18T09:21:50;10.90;99.90
7196;DHT22;3639;51.308;5.624;2023-02-18T09:24:18;10.90;99.90
7196;DHT22;3639;51.308;5.624;2023-02-18T09:26:44;11.00;99.90
7196;DHT22;3639;51.308;5.624;2023-02-18T09:29:10;11.00;99.90
7196;DHT22;3639;51.308;5.624;2023-02-18T09:31:35;11.00;99.90
7196;DHT22;3639;51.308;5.624;2023-02-18T09:34:04;10.90;99.90
7196;DHT22;3639;51.308;5.624;2023-02-18T09:36:30;11.00;99.90
7196;DHT22;3639;51.308;5.624;2023-02-18T09:38:57;11.00;99.90
7196;DHT22;3639;51.308;5.624;2023-02-18T09:41:32;11.00;99.90
7196;DHT22;3639;51.308;5.624;2023-02-18T09:44:02;11.00;99.90
7196;DHT22;3639;51.308;5.624;2023-02-18T09:46:34;11.00;99.90
7196;DHT22;3639;51.308;5.624;2023-02-18T09:49:04;11.00;99.90
7196;DHT22;3639;51.308;5.624;2023-02-18T09:51:31;11.00;99.90
7196;DHT22;3639;51.308;5.624;2023-02-18T09:53:57;10.90;99.90
7196;DHT22;3639;51.308;5.624;2023-02-18T09:56:30;10.90;99.90
7196;DHT22;3639;51.308;5.624;2023-02-18T09:58:58;10.90;99.90
7196;DHT22;3639;51.308;5.624;2023-02-18T10:01:39;10.80;99.90
7196;DHT22;3639;51.308;5.624;2023-02-18T10:04:16;10.70;99.90
7196;DHT22;3639;51.308;5.624;2023-02-18T10:06:44;10.60;99.90
7196;DHT22;3639;51.308;5.624;2023-02-18T10:09:21;10.60;99.90
7196;DHT22;3639;51.308;5.624;2023-02-18T10:12:15;10.50;99.90
7196;DHT22;3639;51.308;5.624;2023-02-18T10:14:44;10.40;99.90
7196;DHT22;3639;51.308;5.624;2023-02-18T10:17:13;10.40;99.90
7196;DHT22;3639;51.308;5.624;2023-02-18T10:19:42;10.40;99.90
7196;DHT22;3639;51.308;5.624;2023-02-18T10:22:11;10.40;99.90
7196;DHT22;3639;51.308;5.624;2023-02-18T10:24:54;10.40;99.90
7196;DHT22;3639;51.308;5.624;2023-02-18T10:29:50;10.40;99.90
7196;DHT22;3639;51.308;5.624;2023-02-18T10:32:26;10.50;99.90
7196;DHT22;3639;51.308;5.624;2023-02-18T10:50:34;10.50;99.90
7196;DHT22;3639;51.308;5.624;2023-02-18T10:55:41;10.70;99.90
7196;DHT22;3639;51.308;5.624;2023-02-18T10:58:34;10.70;99.90
7196;DHT22;3639;51.308;5.624;2023-02-18T11:01:03;10.70;99.90
7196;DHT22;3639;51.308;5.624;2023-02-18T11:03:43;10.70;99.90
7196;DHT22;3639;51.308;5.624;2023-02-18T11:06:20;10.70;99.90
7196;DHT22;3639;51.308;5.624;2023-02-18T11:08:49;10.80;99.90
7196;DHT22;3639;51.308;5.624;2023-02-18T11:11:24;10.80;99.90
7196;DHT22;3639;51.308;5.624;2023-02-18T11:13:53;10.80;99.90
7196;DHT22;3639;51.308;5.624;2023-02-18T11:16:21;10.90;99.90
7196;DHT22;3639;51.308;5.624;2023-02-18T11:18:47;10.90;99.90
7196;DHT22;3639;51.308;5.624;2023-02-18T11:21:31;11.00;99.90
7196;DHT22;3639;51.308;5.624;2023-02-18T11:24:07;10.90;99.90
7196;DHT22;3639;51.308;5.624;2023-02-18T11:26:35;10.90;99.90
7196;DHT22;3639;51.308;5.624;2023-02-18T11:29:22;10.80;99.90
7196;DHT22;3639;51.308;5.624;2023-02-18T11:31:51;10.80;99.90
7196;DHT22;3639;51.308;5.624;2023-02-18T11:34:21;10.80;99.90
7196;DHT22;3639;51.308;5.624;2023-02-18T11:36:48;10.80;99.90
7196;DHT22;3639;51.308;5.624;2023-02-18T11:39:21;10.80;99.90
7196;DHT22;3639;51.308;5.624;2023-02-18T11:41:54;10.90;99.90
7196;DHT22;3639;51.308;5.624;2023-02-18T11:44:47;10.90;99.90
7196;DHT22;3639;51.308;5.624;2023-02-18T11:49:40;10.90;99.90
7196;DHT22;3639;51.308;5.624;2023-02-18T11:52:28;11.00;99.90
7196;DHT22;3639;51.308;5.624;2023-02-18T11:55:06;11.00;99.90
7196;DHT22;3639;51.308;5.624;2023-02-18T11:57:38;11.00;99.90
7196;DHT22;3639;51.308;5.624;2023-02-18T12:06:13;11.10;99.90
7196;DHT22;3639;51.308;5.624;2023-02-18T12:08:57;11.10;99.90
7196;DHT22;3639;51.308;5.624;2023-02-18T12:11:33;11.20;99.90
7196;DHT22;3639;51.308;5.624;2023-02-18T12:14:00;11.30;99.90
7196;DHT22;3639;51.308;5.624;2023-02-18T13:07:56;11.50;99.90
7196;DHT22;3639;51.308;5.624;2023-02-18T13:11:00;11.50;99.90
7196;DHT22;3639;51.308;5.624;2023-02-18T13:13:40;11.60;99.90
7196;DHT22;3639;51.308;5.624;2023-02-18T13:16:12;11.60;99.90
7196;DHT22;3639;51.308;5.624;2023-02-18T13:18:43;11.70;99.90
7196;DHT22;3639;51.308;5.624;2023-02-18T13:21:14;11.80;99.90
7196;DHT22;3639;51.308;5.624;2023-02-18T13:26:13;11.80;99.90
7196;DHT22;3639;51.308;5.624;2023-02-18T13:29:11;11.80;99.90
7196;DHT22;3639;51.308;5.624;2023-02-18T13:32:02;11.80;99.90
7196;DHT22;3639;51.308;5.624;2023-02-18T13:34:49;11.80;99.90
7196;DHT22;3639;51.308;5.624;2023-02-18T13:39:55;11.70;99.90
7196;DHT22;3639;51.308;5.624;2023-02-18T13:47:45;11.70;99.90
7196;DHT22;3639;51.308;5.624;2023-02-18T13:58:50;11.70;99.90
7196;DHT22;3639;51.308;5.624;2023-02-18T14:01:39;11.70;99.90
7196;DHT22;3639;51.308;5.624;2023-02-18T14:09:50;11.60;99.90
7196;DHT22;3639;51.308;5.624;2023-02-18T14:12:34;11.50;99.90
7196;DHT22;3639;51.308;5.624;2023-02-18T14:20:41;11.50;99.90
7196;DHT22;3639;51.308;5.624;2023-02-18T14:23:12;11.60;99.90
7196;DHT22;3639;51.308;5.624;2023-02-18T14:26:07;11.60;99.90
7196;DHT22;3639;51.308;5.624;2023-02-18T14:31:04;11.60;99.90
7196;DHT22;3639;51.308;5.624;2023-02-18T14:33:33;11.70;99.90
7196;DHT22;3639;51.308;5.624;2023-02-18T14:46:58;12.00;99.90
7196;DHT22;3639;51.308;5.624;2023-02-18T14:49:54;12.10;99.90
7196;DHT22;3639;51.308;5.624;2023-02-18T14:52:36;12.20;99.90
7196;DHT22;3639;51.308;5.624;2023-02-18T14:55:05;12.20;99.90
7196;DHT22;3639;51.308;5.624;2023-02-18T14:57:47;12.20;99.90
7196;DHT22;3639;51.308;5.624;2023-02-18T15:00:20;12.10;99.90
7196;DHT22;3639;51.308;5.624;2023-02-18T15:02:52;12.10;99.90
7196;DHT22;3639;51.308;5.624;2023-02-18T15:05:25;12.00;99.90
7196;DHT22;3639;51.308;5.624;2023-02-18T15:10:35;12.00;99.90
7196;DHT22;3639;51.308;5.624;2023-02-18T15:13:04;11.90;99.90
7196;DHT22;3639;51.308;5.624;2023-02-18T15:15:33;11.90;99.90
7196;DHT22;3639;51.308;5.624;2023-02-18T15:18:02;11.80;99.90
7196;DHT22;3639;51.308;5.624;2023-02-18T15:20:30;11.90;99.90
7196;DHT22;3639;51.308;5.624;2023-02-18T15:22:56;11.90;99.90
7196;DHT22;3639;51.308;5.624;2023-02-18T15:25:24;11.90;99.90
7196;DHT22;3639;51.308;5.624;2023-02-18T15:27:52;11.90;99.90
7196;DHT22;3639;51.308;5.624;2023-02-18T15:30:30;11.90;99.90
7196;DHT22;3639;51.308;5.624;2023-02-18T15:32:59;11.90;99.90
7196;DHT22;3639;51.308;5.624;2023-02-18T15:35:30;12.00;99.90
7196;DHT22;3639;51.308;5.624;2023-02-18T15:37:58;12.00;99.90
7196;DHT22;3639;51.308;5.624;2023-02-18T15:40:28;12.00;99.90
7196;DHT22;3639;51.308;5.624;2023-02-18T15:42:57;11.90;99.90
7196;DHT22;3639;51.308;5.624;2023-02-18T15:45:31;12.00;99.90
7196;DHT22;3639;51.308;5.624;2023-02-18T15:47:59;11.90;99.90
7196;DHT22;3639;51.308;5.624;2023-02-18T15:50:29;11.90;99.90
7196;DHT22;3639;51.308;5.624;2023-02-18T15:52:58;11.90;99.90
7196;DHT22;3639;51.308;5.624;2023-02-18T15:55:36;11.80;99.90
7196;DHT22;3639;51.308;5.624;2023-02-18T15:58:10;11.80;99.90
7196;DHT22;3639;51.308;5.624;2023-02-18T16:00:48;11.80;99.90
7196;DHT22;3639;51.308;5.624;2023-02-18T16:03:24;11.70;99.90
7196;DHT22;3639;51.308;5.624;2023-02-18T16:05:51;11.70;99.90
7196;DHT22;3639;51.308;5.624;2023-02-18T16:08:31;11.60;99.90
7196;DHT22;3639;51.308;5.624;2023-02-18T16:11:03;11.60;99.90
7196;DHT22;3639;51.308;5.624;2023-02-18T16:13:31;11.50;99.90
7196;DHT22;3639;51.308;5.624;2023-02-18T16:15:57;11.40;99.90
7196;DHT22;3639;51.308;5.624;2023-02-18T16:18:38;11.40;99.90
7196;DHT22;3639;51.308;5.624;2023-02-18T16:21:22;11.30;99.90
7196;DHT22;3639;51.308;5.624;2023-02-18T16:29:13;11.20;99.90
7196;DHT22;3639;51.308;5.624;2023-02-18T16:31:40;11.10;99.90
7196;DHT22;3639;51.308;5.624;2023-02-18T16:34:06;11.10;99.90
7196;DHT22;3639;51.308;5.624;2023-02-18T16:36:31;11.10;99.90
7196;DHT22;3639;51.308;5.624;2023-02-18T16:38:57;11.10;99.90
7196;DHT22;3639;51.308;5.624;2023-02-18T16:41:26;11.10;99.90
7196;DHT22;3639;51.308;5.624;2023-02-18T16:43:52;11.00;99.90
7196;DHT22;3639;51.308;5.624;2023-02-18T16:46:21;11.00;99.90
7196;DHT22;3639;51.308;5.624;2023-02-18T16:48:51;11.00;99.90
7196;DHT22;3639;51.308;5.624;2023-02-18T16:51:31;11.00;99.90
7196;DHT22;3639;51.308;5.624;2023-02-18T16:53:57;11.00;99.90
7196;DHT22;3639;51.308;5.624;2023-02-18T16:56:25;10.90;99.90
7196;DHT22;3639;51.308;5.624;2023-02-18T16:58:51;11.00;99.90
7196;DHT22;3639;51.308;5.624;2023-02-18T17:01:28;10.90;99.90
7196;DHT22;3639;51.308;5.624;2023-02-18T17:03:56;10.90;99.90
7196;DHT22;3639;51.308;5.624;2023-02-18T17:06:22;10.90;99.90
7196;DHT22;3639;51.308;5.624;2023-02-18T17:08:48;10.90;99.90
7196;DHT22;3639;51.308;5.624;2023-02-18T17:11:23;10.80;99.90
7196;DHT22;3639;51.308;5.624;2023-02-18T17:13:51;10.90;99.90
7196;DHT22;3639;51.308;5.624;2023-02-18T17:16:18;10.90;99.90
7196;DHT22;3639;51.308;5.624;2023-02-18T17:18:45;10.80;99.90
7196;DHT22;3639;51.308;5.624;2023-02-18T17:21:16;10.90;99.90
7196;DHT22;3639;51.308;5.624;2023-02-18T17:23:43;10.80;99.90
7196;DHT22;3639;51.308;5.624;2023-02-18T17:26:26;10.80;99.90
7196;DHT22;3639;51.308;5.624;2023-02-18T17:28:53;10.80;99.90
7196;DHT22;3639;51.308;5.624;2023-02-18T17:31:25;10.80;99.90
7196;DHT22;3639;51.308;5.624;2023-02-18T17:33:53;10.80;99.90
7196;DHT22;3639;51.308;5.624;2023-02-18T17:36:19;10.80;99.90
7196;DHT22;3639;51.308;5.624;2023-02-18T17:38:45;10.80;99.90
7196;DHT22;3639;51.308;5.624;2023-02-18T17:41:12;10.80;99.90
7196;DHT22;3639;51.308;5.624;2023-02-18T17:43:38;10.80;99.90
7196;DHT22;3639;51.308;5.624;2023-02-18T17:46:04;10.80;99.90
7196;DHT22;3639;51.308;5.624;2023-02-18T17:48:31;10.80;99.90
7196;DHT22;3639;51.308;5.624;2023-02-18T17:50:57;10.80;99.90
7196;DHT22;3639;51.308;5.624;2023-02-18T17:53:23;10.80;99.90
7196;DHT22;3639;51.308;5.624;2023-02-18T17:55:49;10.70;99.90
7196;DHT22;3639;51.308;5.624;2023-02-18T17:58:15;10.80;99.90
7196;DHT22;3639;51.308;5.624;2023-02-18T18:00:44;10.80;99.90
7196;DHT22;3639;51.308;5.624;2023-02-18T18:03:12;10.80;99.90
7196;DHT22;3639;51.308;5.624;2023-02-18T18:05:39;10.80;99.90
7196;DHT22;3639;51.308;5.624;2023-02-18T18:08:06;10.80;99.90
7196;DHT22;3639;51.308;5.624;2023-02-18T18:10:37;10.80;99.90
7196;DHT22;3639;51.308;5.624;2023-02-18T18:13:07;10.80;99.90
7196;DHT22;3639;51.308;5.624;2023-02-18T18:15:41;10.80;99.90
7196;DHT22;3639;51.308;5.624;2023-02-18T18:18:08;10.80;99.90
7196;DHT22;3639;51.308;5.624;2023-02-18T18:20:34;10.80;99.90
7196;DHT22;3639;51.308;5.624;2023-02-18T18:23:02;10.80;99.90
7196;DHT22;3639;51.308;5.624;2023-02-18T18:25:39;10.80;99.90
7196;DHT22;3639;51.308;5.624;2023-02-18T18:28:06;10.80;99.90
7196;DHT22;3639;51.308;5.624;2023-02-18T18:30:35;10.80;99.90
7196;DHT22;3639;51.308;5.624;2023-02-18T18:33:01;10.90;99.90
7196;DHT22;3639;51.308;5.624;2023-02-18T18:35:32;10.80;99.90
7196;DHT22;3639;51.308;5.624;2023-02-18T18:37:59;10.90;99.90
7196;DHT22;3639;51.308;5.624;2023-02-18T18:40:28;10.90;99.90
7196;DHT22;3639;51.308;5.624;2023-02-18T18:42:55;10.90;99.90
7196;DHT22;3639;51.308;5.624;2023-02-18T18:45:27;10.90;99.90
7196;DHT22;3639;51.308;5.624;2023-02-18T18:47:54;10.90;99.90
7196;DHT22;3639;51.308;5.624;2023-02-18T18:50:20;10.90;99.90
7196;DHT22;3639;51.308;5.624;2023-02-18T18:52:47;10.90;99.90
7196;DHT22;3639;51.308;5.624;2023-02-18T18:57:43;10.90;99.90
7196;DHT22;3639;51.308;5.624;2023-02-18T19:00:09;10.90;99.90
7196;DHT22;3639;51.308;5.624;2023-02-18T19:02:35;10.90;99.90
7196;DHT22;3639;51.308;5.624;2023-02-18T19:05:01;11.00;99.90
7196;DHT22;3639;51.308;5.624;2023-02-18T19:07:28;10.90;99.90
7196;DHT22;3639;51.308;5.624;2023-02-18T19:09:53;11.00;99.90
7196;DHT22;3639;51.308;5.624;2023-02-18T19:12:19;11.00;99.90
7196;DHT22;3639;51.308;5.624;2023-02-18T19:14:45;10.90;99.90
7196;DHT22;3639;51.308;5.624;2023-02-18T19:17:10;10.90;99.90